createdAt,value
2023-05-20T00:01:21.040Z,81.98
2023-05-20T00:03:49.042Z,81.98
2023-05-20T00:06:18.241Z,82.13
2023-05-20T00:08:45.956Z,81.62
2023-05-20T00:11:13.810Z,81.60
2023-05-20T00:13:41.561Z,81.70
2023-05-20T00:16:09.413Z,81.80
2023-05-20T00:18:37.166Z,81.91
2023-05-20T00:21:05.186Z,81.96
2023-05-20T00:23:34.254Z,82.05
2023-05-20T00:26:01.951Z,81.82
2023-05-20T00:28:30.721Z,81.83
2023-05-20T00:30:58.459Z,81.98
2023-05-20T00:33:26.259Z,81.88
2023-05-20T00:35:53.927Z,82.18
2023-05-20T00:38:21.651Z,82.04
2023-05-20T00:40:50.829Z,82.23
2023-05-20T00:43:20.499Z,82.12
2023-05-20T00:45:48.733Z,82.21
2023-05-20T00:48:16.659Z,82.55
2023-05-20T00:50:44.537Z,82.75
2023-05-20T00:53:12.299Z,82.31
2023-05-20T00:55:40.296Z,82.37
2023-05-20T00:58:09.745Z,82.58
2023-05-20T01:00:37.503Z,82.88
2023-05-20T01:03:06.063Z,83.34
2023-05-20T01:05:34.091Z,83.36
2023-05-20T01:08:02.255Z,83.29
2023-05-20T01:10:32.222Z,83.51
2023-05-20T01:13:04.257Z,83.19
2023-05-20T01:15:34.172Z,83.19
2023-05-20T01:18:05.975Z,82.87
2023-05-20T01:20:34.527Z,83.28
2023-05-20T01:23:04.255Z,83.21
2023-05-20T01:25:32.220Z,82.99
2023-05-20T01:28:00.753Z,82.77
2023-05-20T01:30:35.556Z,82.65
2023-05-20T01:33:08.829Z,82.46
2023-05-20T01:35:37.455Z,82.14
2023-05-20T01:38:07.875Z,82.09
2023-05-20T01:40:36.166Z,82.00
2023-05-20T01:43:04.843Z,81.85
2023-05-20T01:45:32.992Z,81.79
2023-05-20T01:48:01.799Z,81.90
2023-05-20T01:50:29.612Z,81.97
2023-05-20T01:52:57.435Z,81.68
2023-05-20T01:55:27.352Z,81.67
2023-05-20T01:57:55.992Z,81.97
2023-05-20T02:00:23.958Z,81.76
2023-05-20T02:02:51.717Z,81.79
2023-05-20T02:05:19.459Z,81.58
2023-05-20T02:07:47.223Z,81.56
2023-05-20T02:10:15.106Z,81.40
2023-05-20T02:12:44.208Z,81.92
2023-05-20T02:15:12.401Z,81.78
2023-05-20T02:17:40.602Z,81.75
2023-05-20T02:20:10.408Z,81.53
2023-05-20T02:22:38.172Z,81.70
2023-05-20T02:25:06.769Z,81.93
2023-05-20T02:27:34.553Z,81.90
2023-05-20T02:30:03.760Z,81.78
2023-05-20T02:32:31.529Z,81.70
2023-05-20T02:35:00.627Z,81.84
2023-05-20T02:37:29.526Z,81.95
2023-05-20T02:39:57.438Z,81.79
2023-05-20T02:42:25.364Z,81.70
2023-05-20T02:44:56.460Z,81.77
2023-05-20T02:47:26.171Z,81.58
2023-05-20T02:49:53.966Z,81.70
2023-05-20T02:52:22.275Z,81.86
2023-05-20T02:54:50.243Z,81.68
2023-05-20T02:57:17.915Z,81.84
2023-05-20T02:59:46.100Z,81.73
2023-05-20T03:02:14.422Z,82.42
2023-05-20T03:04:44.413Z,82.41
2023-05-20T03:07:12.540Z,82.50
2023-05-20T03:09:40.395Z,82.25
2023-05-20T03:12:08.522Z,82.63
2023-05-20T03:14:36.302Z,82.79
2023-05-20T03:17:04.274Z,82.67
2023-05-20T03:19:32.502Z,83.05
2023-05-20T03:22:01.897Z,83.23
2023-05-20T03:24:30.144Z,83.05
2023-05-20T03:27:00.054Z,83.43
2023-05-20T03:29:27.803Z,83.52
2023-05-20T03:31:55.862Z,83.49
2023-05-20T03:34:23.642Z,83.85
2023-05-20T03:36:52.486Z,83.88
2023-05-20T03:39:21.752Z,83.93
2023-05-20T03:41:49.639Z,83.86
2023-05-20T03:44:17.510Z,84.03
2023-05-20T03:46:45.295Z,84.12
2023-05-20T03:49:14.179Z,84.17
2023-05-20T03:51:42.106Z,84.36
2023-05-20T03:54:13.147Z,84.54
2023-05-20T03:56:43.094Z,84.59
2023-05-20T03:59:11.089Z,84.56
2023-05-20T04:01:39.144Z,84.61
2023-05-20T04:04:07.305Z,84.97
2023-05-20T04:06:36.027Z,84.93
2023-05-20T04:09:04.081Z,85.32
2023-05-20T04:11:31.879Z,85.32
2023-05-20T04:14:01.171Z,85.56
2023-05-20T04:16:29.705Z,85.79
2023-05-20T04:18:59.244Z,85.83
2023-05-20T04:21:27.333Z,86.09
2023-05-20T04:23:55.127Z,86.05
2023-05-20T04:26:22.874Z,86.47
2023-05-20T04:28:51.362Z,86.27
2023-05-20T04:31:20.965Z,86.70
2023-05-20T04:33:48.787Z,86.69
2023-05-20T04:36:17.653Z,86.89
2023-05-20T04:38:46.042Z,87.10
2023-05-20T04:41:15.997Z,86.95
2023-05-20T04:43:45.913Z,87.34
2023-05-20T04:46:14.256Z,87.55
2023-05-20T04:48:44.830Z,87.58
2023-05-20T04:51:14.293Z,87.55
2023-05-20T04:53:43.614Z,87.58
2023-05-20T04:56:13.574Z,87.75
2023-05-20T04:58:50.226Z,87.81
2023-05-20T05:01:18.328Z,87.79
2023-05-20T05:03:47.468Z,87.75
2023-05-20T05:06:15.564Z,87.88
2023-05-20T05:08:43.504Z,88.10
2023-05-20T05:11:11.324Z,88.42
2023-05-20T05:13:39.412Z,88.38
2023-05-20T05:16:07.688Z,88.43
2023-05-20T05:18:36.144Z,88.13
2023-05-20T05:21:06.938Z,88.77
2023-05-20T05:23:36.548Z,88.56
2023-05-20T05:26:04.319Z,88.94
2023-05-20T05:28:32.208Z,89.03
2023-05-20T05:31:02.271Z,88.79
2023-05-20T05:33:31.694Z,88.83
2023-05-20T05:36:04.951Z,88.91
2023-05-20T05:38:34.150Z,88.77
2023-05-20T05:41:01.916Z,89.20
2023-05-20T05:43:30.481Z,88.98
2023-05-20T05:45:59.257Z,89.33
2023-05-20T05:48:27.331Z,89.03
2023-05-20T05:50:55.380Z,89.15
2023-05-20T05:53:23.663Z,88.90
2023-05-20T05:55:52.836Z,89.00
2023-05-20T05:58:20.940Z,89.08
2023-05-20T06:00:51.967Z,89.28
2023-05-20T06:03:19.846Z,88.82
2023-05-20T06:05:48.205Z,88.85
2023-05-20T06:08:17.297Z,88.40
2023-05-20T06:10:48.700Z,88.22
2023-05-20T06:13:18.839Z,87.90
2023-05-20T06:15:47.118Z,88.09
2023-05-20T06:18:14.922Z,87.89
2023-05-20T06:20:43.108Z,87.94
2023-05-20T06:23:10.963Z,88.19
2023-05-20T06:25:51.434Z,87.99
2023-05-20T06:28:21.778Z,87.92
2023-05-20T06:30:49.703Z,87.74
2023-05-20T06:33:20.243Z,87.67
2023-05-20T06:35:48.360Z,87.45
2023-05-20T06:38:16.348Z,87.51
2023-05-20T06:40:45.839Z,87.08
2023-05-20T06:43:13.984Z,86.79
2023-05-20T06:45:51.342Z,86.43
2023-05-20T06:48:24.323Z,86.02
2023-05-20T06:50:52.114Z,85.71
2023-05-20T06:53:19.904Z,85.33
2023-05-20T06:55:47.834Z,85.46
2023-05-20T06:58:15.672Z,85.50
2023-05-20T07:00:44.542Z,84.36
2023-05-20T07:03:15.154Z,84.21
2023-05-20T07:05:42.975Z,83.84
2023-05-20T07:08:12.421Z,84.03
2023-05-20T07:10:40.261Z,83.60
2023-05-20T07:13:07.992Z,83.14
2023-05-20T07:15:36.155Z,82.78
2023-05-20T07:18:04.321Z,82.06
2023-05-20T07:20:34.684Z,82.28
2023-05-20T07:23:06.579Z,81.83
2023-05-20T07:25:42.417Z,80.78
2023-05-20T07:28:10.210Z,81.26
2023-05-20T07:31:00.190Z,81.20
2023-05-20T07:33:33.721Z,81.01
2023-05-20T07:36:20.044Z,80.06
2023-05-20T07:39:12.334Z,79.64
2023-05-20T07:41:54.679Z,79.52
2023-05-20T07:44:45.319Z,79.68
2023-05-20T07:47:20.837Z,79.07
2023-05-20T07:49:53.451Z,78.84
2023-05-20T07:52:41.159Z,78.93
2023-05-20T07:55:16.209Z,78.54
2023-05-20T07:57:44.874Z,77.47
2023-05-20T08:00:13.537Z,77.55
2023-05-20T08:02:45.110Z,77.13
2023-05-20T08:05:18.171Z,76.87
2023-05-20T08:07:48.605Z,77.23
2023-05-20T08:10:18.593Z,77.68
2023-05-20T08:12:48.256Z,77.74
2023-05-20T08:15:16.259Z,77.38
2023-05-20T08:17:44.314Z,76.15
2023-05-20T08:20:13.720Z,76.50
2023-05-20T08:22:41.895Z,76.73
2023-05-20T08:25:11.369Z,76.24
2023-05-20T08:27:39.095Z,76.44
2023-05-20T08:30:09.904Z,76.41
2023-05-20T08:32:37.815Z,76.55
2023-05-20T08:35:06.757Z,76.68
2023-05-20T08:37:34.768Z,75.97
2023-05-20T08:40:02.468Z,75.26
2023-05-20T08:42:31.975Z,75.46
2023-05-20T08:45:02.193Z,75.45
2023-05-20T08:47:31.681Z,75.38
2023-05-20T08:49:59.549Z,75.46
2023-05-20T08:52:28.060Z,75.51
2023-05-20T08:54:56.861Z,75.76
2023-05-20T08:57:25.041Z,75.38
2023-05-20T08:59:54.120Z,75.25
2023-05-20T09:02:22.661Z,75.12
2023-05-20T09:04:50.534Z,75.05
2023-05-20T09:07:27.913Z,75.16
2023-05-20T09:09:55.756Z,74.80
2023-05-20T09:12:23.444Z,74.88
2023-05-20T09:14:51.463Z,74.91
2023-05-20T09:17:22.309Z,74.61
2023-05-20T09:19:50.747Z,74.02
2023-05-20T09:22:23.815Z,74.45
2023-05-20T09:24:52.197Z,74.40
2023-05-20T09:27:20.289Z,75.32
2023-05-20T09:29:48.664Z,74.96
2023-05-20T09:32:17.051Z,73.97
2023-05-20T09:34:48.149Z,73.70
2023-05-20T09:37:19.757Z,73.86
2023-05-20T09:39:53.460Z,74.22
2023-05-20T09:42:26.488Z,74.70
2023-05-20T09:44:55.524Z,74.99
2023-05-20T09:47:25.090Z,74.85
2023-05-20T09:49:54.882Z,75.27
2023-05-20T09:52:23.470Z,74.26
2023-05-20T09:54:52.162Z,73.69
2023-05-20T09:57:19.891Z,73.43
2023-05-20T09:59:48.771Z,73.75
2023-05-20T10:02:16.587Z,74.60
2023-05-20T10:04:51.049Z,74.88
2023-05-20T10:07:53.238Z,74.87
2023-05-20T10:10:30.572Z,73.62
2023-05-20T10:13:12.117Z,72.71
2023-05-20T10:16:03.481Z,72.35
2023-05-20T10:19:01.494Z,72.08
2023-05-20T10:21:30.228Z,71.17
2023-05-20T10:24:08.226Z,71.64
2023-05-20T10:26:48.654Z,71.83
2023-05-20T10:29:28.458Z,72.48
2023-05-20T10:32:03.971Z,73.08
2023-05-20T10:35:04.571Z,72.73
2023-05-20T10:37:43.687Z,72.96
2023-05-20T10:40:18.775Z,72.56
2023-05-20T10:42:50.141Z,72.17
2023-05-20T10:45:39.690Z,71.34
2023-05-20T10:48:37.229Z,71.31
2023-05-20T10:51:11.704Z,71.01
2023-05-20T10:53:44.660Z,70.30
2023-05-20T10:56:25.250Z,70.89
2023-05-20T10:59:02.235Z,70.87
2023-05-20T11:01:39.139Z,70.34
2023-05-20T11:04:08.668Z,70.75
2023-05-20T11:06:40.737Z,70.49
2023-05-20T11:09:17.299Z,71.19
2023-05-20T11:11:51.956Z,70.50
2023-05-20T11:14:23.744Z,69.87
2023-05-20T11:16:58.885Z,68.84
2023-05-20T11:19:29.915Z,69.05
2023-05-20T11:22:08.433Z,69.18
2023-05-20T11:24:40.338Z,68.94
2023-05-20T11:27:09.971Z,67.98
2023-05-20T11:29:43.832Z,67.79
2023-05-20T11:32:21.549Z,68.11
2023-05-20T11:34:58.453Z,68.58
2023-05-20T11:37:36.139Z,67.31
2023-05-20T11:40:09.561Z,65.77
2023-05-20T11:42:55.562Z,63.96
2023-05-20T11:45:27.889Z,64.21
2023-05-20T11:48:04.144Z,63.48
2023-05-20T11:50:42.075Z,64.09
2023-05-20T11:53:21.845Z,64.53
2023-05-20T11:55:58.986Z,64.58
2023-05-20T11:58:36.321Z,63.84
2023-05-20T12:01:21.213Z,62.58
2023-05-20T12:04:21.752Z,61.17
2023-05-20T12:06:56.395Z,60.45
2023-05-20T12:09:28.983Z,59.68
2023-05-20T12:12:02.537Z,58.34
2023-05-20T12:14:35.937Z,58.46
2023-05-20T12:17:07.990Z,58.04
2023-05-20T12:19:36.997Z,57.91
2023-05-20T12:22:14.056Z,58.29
2023-05-20T12:24:45.192Z,59.19
2023-05-20T12:27:38.392Z,59.94
2023-05-20T12:30:13.914Z,59.82
2023-05-20T12:32:50.013Z,58.06
2023-05-20T12:35:39.879Z,55.71
2023-05-20T12:38:20.423Z,55.40
2023-05-20T12:40:55.047Z,55.13
2023-05-20T12:43:29.415Z,55.43
2023-05-20T12:46:04.053Z,54.62
2023-05-20T12:48:49.563Z,52.00
2023-05-20T12:51:26.317Z,51.24
2023-05-20T12:54:03.049Z,52.09
2023-05-20T12:56:34.724Z,51.99
2023-05-20T12:59:05.980Z,51.47
2023-05-20T13:01:44.792Z,50.64
2023-05-20T13:04:17.778Z,49.25
2023-05-20T13:06:57.300Z,48.43
2023-05-20T13:09:33.855Z,48.47
2023-05-20T13:12:05.590Z,47.05
2023-05-20T13:14:42.633Z,47.58
2023-05-20T13:17:22.445Z,47.39
2023-05-20T13:19:53.263Z,47.36
2023-05-20T13:22:28.280Z,46.13
2023-05-20T13:24:56.555Z,45.23
2023-05-20T13:27:28.202Z,46.29
2023-05-20T13:30:08.235Z,46.12
2023-05-20T13:32:37.499Z,46.13
2023-05-20T13:35:05.842Z,45.27
2023-05-20T13:37:33.529Z,46.08
2023-05-20T13:40:01.221Z,45.31
2023-05-20T13:42:29.075Z,44.01
2023-05-20T13:44:57.095Z,44.51
2023-05-20T13:47:25.994Z,43.86
2023-05-20T13:49:55.125Z,43.63
2023-05-20T13:52:22.804Z,43.19
2023-05-20T13:54:50.521Z,43.18
2023-05-20T13:57:18.319Z,43.54
2023-05-20T13:59:46.198Z,44.13
2023-05-20T14:02:14.556Z,43.68
2023-05-20T14:04:44.970Z,42.52
2023-05-20T14:07:14.373Z,42.41
2023-05-20T14:09:45.526Z,42.94
2023-05-20T14:12:13.793Z,43.47
2023-05-20T14:14:41.469Z,43.50
2023-05-20T14:17:09.320Z,43.67
2023-05-20T14:19:37.354Z,43.00
2023-05-20T14:22:05.568Z,43.65
2023-05-20T14:24:34.726Z,43.07
2023-05-20T14:27:02.551Z,43.16
2023-05-20T14:29:30.256Z,43.20
2023-05-20T14:31:58.266Z,42.89
2023-05-20T14:34:26.139Z,42.39
2023-05-20T14:36:54.009Z,42.70
2023-05-20T14:39:22.083Z,42.36
2023-05-20T14:41:51.382Z,42.24
2023-05-20T14:44:19.239Z,42.22
2023-05-20T14:46:49.441Z,43.06
2023-05-20T14:49:17.158Z,43.18
2023-05-20T14:51:44.974Z,42.68
2023-05-20T14:54:14.269Z,42.54
2023-05-20T14:56:43.251Z,43.08
2023-05-20T14:59:12.530Z,42.75
2023-05-20T15:01:40.341Z,43.01
2023-05-20T15:04:08.103Z,43.37
2023-05-20T15:06:37.112Z,43.52
2023-05-20T15:09:06.201Z,43.69
2023-05-20T15:11:34.121Z,43.84
2023-05-20T15:14:02.289Z,44.66
2023-05-20T15:16:31.636Z,44.34
2023-05-20T15:19:01.334Z,44.64
2023-05-20T15:21:29.311Z,44.50
2023-05-20T15:23:57.260Z,45.05
2023-05-20T15:26:25.134Z,45.34
2023-05-20T15:28:52.982Z,45.78
2023-05-20T15:31:21.046Z,46.44
2023-05-20T15:33:50.349Z,46.16
2023-05-20T15:36:18.336Z,46.47
2023-05-20T15:38:46.689Z,45.74
2023-05-20T15:41:14.603Z,46.50
2023-05-20T15:43:42.498Z,47.09
2023-05-20T15:46:10.279Z,47.22
2023-05-20T15:48:39.031Z,47.63
2023-05-20T15:51:08.209Z,47.95
2023-05-20T15:53:36.119Z,48.41
2023-05-20T15:56:05.146Z,49.16
2023-05-20T15:58:33.411Z,48.90
2023-05-20T16:01:01.090Z,49.25
2023-05-20T16:03:30.112Z,49.59
2023-05-20T16:05:57.847Z,50.14
2023-05-20T16:08:29.491Z,50.39
2023-05-20T16:10:57.415Z,50.52
2023-05-20T16:13:25.361Z,51.00
2023-05-20T16:15:57.491Z,51.44
2023-05-20T16:18:25.319Z,51.96
2023-05-20T16:20:53.196Z,52.49
2023-05-20T16:23:21.142Z,53.18
2023-05-20T16:25:50.199Z,53.76
2023-05-20T16:28:17.974Z,53.45
2023-05-20T16:30:45.646Z,53.69
2023-05-20T16:33:13.984Z,54.37
2023-05-20T16:35:41.971Z,54.73
2023-05-20T16:38:10.082Z,55.29
2023-05-20T16:40:37.805Z,55.50
2023-05-20T16:43:06.798Z,55.66
2023-05-20T16:45:34.496Z,55.95
2023-05-20T16:48:02.232Z,56.09
2023-05-20T16:50:30.044Z,56.90
2023-05-20T16:53:00.582Z,57.10
2023-05-20T16:55:28.257Z,57.35
2023-05-20T16:57:56.831Z,57.22
2023-05-20T17:00:26.073Z,57.32
2023-05-20T17:02:54.038Z,57.76
2023-05-20T17:05:21.785Z,58.00
2023-05-20T17:07:51.042Z,58.09
2023-05-20T17:10:19.428Z,58.59
2023-05-20T17:12:47.131Z,59.16
2023-05-20T17:15:14.932Z,58.74
2023-05-20T17:17:44.265Z,59.32
2023-05-20T17:20:13.017Z,59.65
2023-05-20T17:22:40.713Z,59.93
2023-05-20T17:25:09.768Z,59.99
2023-05-20T17:27:37.486Z,60.26
2023-05-20T17:30:06.542Z,60.96
2023-05-20T17:32:34.337Z,61.29
2023-05-20T17:35:03.461Z,61.44
2023-05-20T17:37:31.513Z,61.88
2023-05-20T17:39:59.344Z,62.68
2023-05-20T17:42:27.046Z,62.45
2023-05-20T17:44:54.732Z,62.50
2023-05-20T17:47:22.469Z,63.20
2023-05-20T17:49:50.239Z,63.45
2023-05-20T17:52:19.335Z,63.48
2023-05-20T17:54:47.398Z,63.87
2023-05-20T17:57:16.571Z,63.90
2023-05-20T17:59:45.696Z,64.46
2023-05-20T18:02:13.955Z,64.34
2023-05-20T18:04:41.807Z,64.63
2023-05-20T18:07:09.635Z,65.04
2023-05-20T18:09:39.567Z,65.20
2023-05-20T18:12:08.642Z,65.69
2023-05-20T18:14:36.861Z,66.37
2023-05-20T18:17:04.642Z,66.51
2023-05-20T18:19:33.837Z,66.78
2023-05-20T18:22:02.738Z,66.43
2023-05-20T18:24:30.726Z,66.59
2023-05-20T18:26:59.798Z,66.99
2023-05-20T18:29:27.494Z,67.36
2023-05-20T18:31:55.778Z,68.06
2023-05-20T18:34:24.168Z,68.41
2023-05-20T18:36:52.496Z,68.42
2023-05-20T18:39:21.251Z,68.71
2023-05-20T18:41:49.360Z,68.85
2023-05-20T18:44:19.844Z,69.05
2023-05-20T18:46:47.860Z,69.38
2023-05-20T18:49:15.814Z,69.44
2023-05-20T18:51:44.004Z,69.85
2023-05-20T18:54:11.761Z,69.83
2023-05-20T18:56:39.504Z,70.25
2023-05-20T18:59:07.205Z,70.33
2023-05-20T19:01:36.682Z,70.65
2023-05-20T19:04:04.572Z,70.78
2023-05-20T19:06:35.174Z,71.06
2023-05-20T19:09:03.683Z,71.38
2023-05-20T19:11:32.092Z,71.82
2023-05-20T19:14:00.208Z,72.22
2023-05-20T19:16:28.418Z,72.68
2023-05-20T19:18:57.832Z,73.14
2023-05-20T19:21:25.650Z,73.53
2023-05-20T19:23:53.283Z,74.12
2023-05-20T19:26:21.053Z,74.47
2023-05-20T19:28:48.755Z,74.83
2023-05-20T19:31:21.027Z,74.93
2023-05-20T19:34:00.191Z,75.47
2023-05-20T19:36:42.940Z,75.72
2023-05-20T19:39:14.374Z,76.31
2023-05-20T19:41:51.234Z,76.38
2023-05-20T19:44:22.599Z,76.99
2023-05-20T19:46:57.296Z,77.49
2023-05-20T19:49:27.688Z,77.75
2023-05-20T19:51:59.681Z,78.44
2023-05-20T19:54:27.934Z,78.79
2023-05-20T19:56:55.689Z,79.20
2023-05-20T19:59:23.634Z,79.57
2023-05-20T20:01:52.396Z,79.80
2023-05-20T20:04:20.158Z,80.00
2023-05-20T20:06:48.210Z,80.06
2023-05-20T20:09:17.323Z,80.43
2023-05-20T20:11:45.140Z,80.66
2023-05-20T20:14:13.565Z,81.08
2023-05-20T20:16:41.822Z,81.22
2023-05-20T20:19:11.862Z,81.82
2023-05-20T20:21:40.270Z,82.09
2023-05-20T20:24:08.042Z,82.62
2023-05-20T20:26:37.276Z,82.79
2023-05-20T20:29:04.992Z,82.98
2023-05-20T20:31:32.733Z,83.56
2023-05-20T20:34:00.473Z,83.57
2023-05-20T20:36:31.743Z,83.55
2023-05-20T20:39:02.564Z,83.89
2023-05-20T20:41:30.378Z,83.99
2023-05-20T20:43:59.572Z,84.62
2023-05-20T20:46:28.728Z,84.73
2023-05-20T20:48:56.535Z,84.79
2023-05-20T20:51:24.341Z,84.96
2023-05-20T20:53:52.220Z,85.56
2023-05-20T20:56:19.927Z,85.66
2023-05-20T20:58:47.631Z,85.72
2023-05-20T21:01:17.556Z,85.71
2023-05-20T21:03:45.624Z,86.22
2023-05-20T21:06:14.228Z,86.75
2023-05-20T21:08:42.678Z,86.60
2023-05-20T21:11:10.522Z,86.63
2023-05-20T21:13:39.659Z,87.05
2023-05-20T21:16:07.464Z,87.25
2023-05-20T21:18:36.612Z,87.33
2023-05-20T21:21:05.594Z,87.60
2023-05-20T21:23:33.354Z,87.85
2023-05-20T21:26:01.103Z,88.19
2023-05-20T21:28:28.816Z,88.36
2023-05-20T21:30:56.588Z,88.64
2023-05-20T21:33:24.379Z,88.71
2023-05-20T21:35:53.445Z,89.08
2023-05-20T21:38:21.215Z,89.53
2023-05-20T21:40:49.240Z,89.84
2023-05-20T21:43:17.136Z,90.10
2023-05-20T21:45:45.785Z,90.42
2023-05-20T21:48:13.504Z,90.39
2023-05-20T21:50:41.586Z,90.86
2023-05-20T21:53:10.685Z,90.92
2023-05-20T21:55:38.595Z,91.27
2023-05-20T21:58:06.604Z,91.63
2023-05-20T22:00:35.048Z,91.85
2023-05-20T22:03:02.830Z,92.14
2023-05-20T22:05:30.666Z,92.20
2023-05-20T22:08:00.416Z,92.80
2023-05-20T22:10:29.597Z,93.04
2023-05-20T22:12:58.172Z,93.23
2023-05-20T22:15:26.209Z,93.60
2023-05-20T22:17:54.807Z,94.01
2023-05-20T22:20:22.822Z,94.35
2023-05-20T22:22:50.615Z,94.83
2023-05-20T22:25:18.560Z,94.95
2023-05-20T22:27:48.267Z,95.17
2023-05-20T22:30:16.057Z,95.60
2023-05-20T22:32:44.193Z,95.78
2023-05-20T22:35:13.357Z,96.13
2023-05-20T22:37:41.821Z,96.34
2023-05-20T22:40:10.756Z,96.55
2023-05-20T22:42:38.516Z,96.76
2023-05-20T22:45:08.933Z,96.67
2023-05-20T22:47:36.796Z,96.62
2023-05-20T22:50:05.279Z,96.63
2023-05-20T22:52:33.625Z,96.58
2023-05-20T22:55:01.378Z,96.48
2023-05-20T22:57:29.599Z,96.85
2023-05-20T22:59:57.375Z,97.11
2023-05-20T23:02:26.462Z,97.40
2023-05-20T23:04:54.211Z,97.56
2023-05-20T23:07:22.013Z,97.93
2023-05-20T23:09:49.714Z,98.47
2023-05-20T23:12:17.556Z,98.77
2023-05-20T23:14:45.244Z,98.87
2023-05-20T23:17:13.060Z,99.47
2023-05-20T23:19:42.937Z,99.78
2023-05-20T23:22:10.650Z,100.00
2023-05-20T23:24:38.418Z,100.00
2023-05-20T23:27:06.494Z,100.00
2023-05-20T23:29:34.351Z,100.00
2023-05-20T23:32:02.064Z,100.00
2023-05-20T23:34:30.830Z,100.00
2023-05-20T23:36:59.988Z,100.00
2023-05-20T23:39:27.753Z,100.00
2023-05-20T23:41:55.651Z,100.00
2023-05-20T23:44:23.342Z,100.00
2023-05-20T23:46:51.171Z,100.00
2023-05-20T23:49:24.439Z,100.00
2023-05-20T23:51:52.887Z,100.00
2023-05-20T23:54:22.944Z,100.00
2023-05-20T23:56:50.817Z,100.00
2023-05-20T23:59:18.694Z,100.00
